sensor_id;sensor_type;location;lat;lon;timestamp;temperature;humidity
29939;DHT22;16799;50.844;5.304;2023-05-02T00:00:10;11.00;99.90
29939;DHT22;16799;50.844;5.304;2023-05-02T00:02:37;11.00;99.90
29939;DHT22;16799;50.844;5.304;2023-05-02T00:05:03;11.10;99.90
29939;DHT22;16799;50.844;5.304;2023-05-02T00:07:29;11.20;99.90
29939;DHT22;16799;50.844;5.304;2023-05-02T00:09:55;11.40;99.90
29939;DHT22;16799;50.844;5.304;2023-05-02T00:12:21;11.30;99.90
29939;DHT22;16799;50.844;5.304;2023-05-02T00:14:47;11.40;99.90
29939;DHT22;16799;50.844;5.304;2023-05-02T00:17:19;11.50;99.90
29939;DHT22;16799;50.844;5.304;2023-05-02T00:19:45;11.50;99.90
29939;DHT22;16799;50.844;5.304;2023-05-02T00:22:11;11.50;99.90
29939;DHT22;16799;50.844;5.304;2023-05-02T00:24:37;11.50;99.90
29939;DHT22;16799;50.844;5.304;2023-05-02T00:27:03;11.50;99.90
29939;DHT22;16799;50.844;5.304;2023-05-02T00:29:29;11.50;99.90
29939;DHT22;16799;50.844;5.304;2023-05-02T00:31:55;11.40;99.90
29939;DHT22;16799;50.844;5.304;2023-05-02T00:34:21;11.40;99.90
29939;DHT22;16799;50.844;5.304;2023-05-02T00:36:47;11.40;99.90
29939;DHT22;16799;50.844;5.304;2023-05-02T00:39:12;11.50;99.90
29939;DHT22;16799;50.844;5.304;2023-05-02T00:41:38;11.50;99.90
29939;DHT22;16799;50.844;5.304;2023-05-02T00:44:04;11.60;99.90
29939;DHT22;16799;50.844;5.304;2023-05-02T00:46:30;11.60;99.90
29939;DHT22;16799;50.844;5.304;2023-05-02T00:48:55;11.60;99.90
29939;DHT22;16799;50.844;5.304;2023-05-02T00:51:21;11.60;99.90
29939;DHT22;16799;50.844;5.304;2023-05-02T00:53:48;11.50;99.90
29939;DHT22;16799;50.844;5.304;2023-05-02T00:56:13;11.50;99.90
29939;DHT22;16799;50.844;5.304;2023-05-02T00:58:39;11.60;99.90
29939;DHT22;16799;50.844;5.304;2023-05-02T01:12:38;11.50;99.90
29939;DHT22;16799;50.844;5.304;2023-05-02T01:14:41;11.60;99.90
29939;DHT22;16799;50.844;5.304;2023-05-02T01:17:10;11.70;99.90
29939;DHT22;16799;50.844;5.304;2023-05-02T01:19:40;11.80;99.90
29939;DHT22;16799;50.844;5.304;2023-05-02T01:22:08;11.80;99.90
29939;DHT22;16799;50.844;5.304;2023-05-02T01:29:58;12.10;99.90
29939;DHT22;16799;50.844;5.304;2023-05-02T01:32:25;12.00;99.90
29939;DHT22;16799;50.844;5.304;2023-05-02T01:34:53;12.00;99.90
29939;DHT22;16799;50.844;5.304;2023-05-02T01:37:21;11.80;99.90
29939;DHT22;16799;50.844;5.304;2023-05-02T01:39:48;11.70;99.90
29939;DHT22;16799;50.844;5.304;2023-05-02T01:42:15;11.70;99.90
29939;DHT22;16799;50.844;5.304;2023-05-02T01:44:42;11.70;99.90
29939;DHT22;16799;50.844;5.304;2023-05-02T01:47:09;11.70;99.90
29939;DHT22;16799;50.844;5.304;2023-05-02T01:49:35;11.70;99.90
29939;DHT22;16799;50.844;5.304;2023-05-02T01:52:04;11.70;99.90
29939;DHT22;16799;50.844;5.304;2023-05-02T01:54:34;11.70;99.90
29939;DHT22;16799;50.844;5.304;2023-05-02T01:57:03;11.60;99.90
29939;DHT22;16799;50.844;5.304;2023-05-02T01:59:32;11.50;99.90
29939;DHT22;16799;50.844;5.304;2023-05-02T02:01:58;11.60;99.90
29939;DHT22;16799;50.844;5.304;2023-05-02T02:04:27;11.50;99.90
29939;DHT22;16799;50.844;5.304;2023-05-02T02:07:07;11.40;99.90
29939;DHT22;16799;50.844;5.304;2023-05-02T02:09:34;11.40;99.90
29939;DHT22;16799;50.844;5.304;2023-05-02T02:14:37;11.40;99.90
29939;DHT22;16799;50.844;5.304;2023-05-02T02:17:25;11.30;99.90
29939;DHT22;16799;50.844;5.304;2023-05-02T02:19:56;11.40;99.90
29939;DHT22;16799;50.844;5.304;2023-05-02T02:22:26;11.40;99.90
29939;DHT22;16799;50.844;5.304;2023-05-02T02:24:53;11.30;99.90
29939;DHT22;16799;50.844;5.304;2023-05-02T02:27:20;11.30;99.90
29939;DHT22;16799;50.844;5.304;2023-05-02T02:29:45;11.40;99.90
29939;DHT22;16799;50.844;5.304;2023-05-02T02:32:11;11.50;99.90
29939;DHT22;16799;50.844;5.304;2023-05-02T02:34:37;11.40;99.90
29939;DHT22;16799;50.844;5.304;2023-05-02T02:51:06;11.40;99.90
29939;DHT22;16799;50.844;5.304;2023-05-02T02:53:59;11.30;99.90
29939;DHT22;16799;50.844;5.304;2023-05-02T02:56:37;11.20;99.90
29939;DHT22;16799;50.844;5.304;2023-05-02T02:59:09;11.30;99.90
29939;DHT22;16799;50.844;5.304;2023-05-02T03:01:39;11.40;99.90
29939;DHT22;16799;50.844;5.304;2023-05-02T03:04:06;11.40;99.90
29939;DHT22;16799;50.844;5.304;2023-05-02T03:06:33;11.50;99.90
29939;DHT22;16799;50.844;5.304;2023-05-02T03:08:59;11.40;99.90
29939;DHT22;16799;50.844;5.304;2023-05-02T03:11:24;11.50;99.90
29939;DHT22;16799;50.844;5.304;2023-05-02T03:13:50;11.40;99.90
29939;DHT22;16799;50.844;5.304;2023-05-02T03:18:57;11.20;99.90
29939;DHT22;16799;50.844;5.304;2023-05-02T03:21:23;10.90;99.90
29939;DHT22;16799;50.844;5.304;2023-05-02T03:23:49;10.80;99.90
29939;DHT22;16799;50.844;5.304;2023-05-02T03:26:15;10.70;99.90
29939;DHT22;16799;50.844;5.304;2023-05-02T03:28:41;10.60;99.90
29939;DHT22;16799;50.844;5.304;2023-05-02T03:31:07;10.60;99.90
29939;DHT22;16799;50.844;5.304;2023-05-02T03:33:32;10.60;99.90
29939;DHT22;16799;50.844;5.304;2023-05-02T03:35:58;10.50;99.90
29939;DHT22;16799;50.844;5.304;2023-05-02T03:38:23;10.50;99.90
29939;DHT22;16799;50.844;5.304;2023-05-02T03:40:49;10.40;99.90
29939;DHT22;16799;50.844;5.304;2023-05-02T03:43:15;10.50;99.90
29939;DHT22;16799;50.844;5.304;2023-05-02T03:45:40;10.50;99.90
29939;DHT22;16799;50.844;5.304;2023-05-02T03:48:06;10.50;99.90
29939;DHT22;16799;50.844;5.304;2023-05-02T03:50:32;10.60;99.90
29939;DHT22;16799;50.844;5.304;2023-05-02T03:52:57;10.80;99.90
29939;DHT22;16799;50.844;5.304;2023-05-02T03:55:23;10.90;99.90
29939;DHT22;16799;50.844;5.304;2023-05-02T03:57:48;10.80;99.90
29939;DHT22;16799;50.844;5.304;2023-05-02T04:00:14;10.80;99.90
29939;DHT22;16799;50.844;5.304;2023-05-02T04:02:40;10.80;99.90
29939;DHT22;16799;50.844;5.304;2023-05-02T04:05:06;10.80;99.90
29939;DHT22;16799;50.844;5.304;2023-05-02T04:07:33;10.80;99.90
29939;DHT22;16799;50.844;5.304;2023-05-02T04:09:59;10.90;99.90
29939;DHT22;16799;50.844;5.304;2023-05-02T04:12:25;11.10;99.90
29939;DHT22;16799;50.844;5.304;2023-05-02T04:14:50;11.20;99.90
29939;DHT22;16799;50.844;5.304;2023-05-02T04:17:16;11.20;99.90
29939;DHT22;16799;50.844;5.304;2023-05-02T04:19:42;11.30;99.90
29939;DHT22;16799;50.844;5.304;2023-05-02T04:22:07;11.30;99.90
29939;DHT22;16799;50.844;5.304;2023-05-02T04:24:33;11.30;99.90
29939;DHT22;16799;50.844;5.304;2023-05-02T04:26:58;11.40;99.90
29939;DHT22;16799;50.844;5.304;2023-05-02T04:29:24;11.50;99.90
29939;DHT22;16799;50.844;5.304;2023-05-02T04:31:50;11.60;99.90
29939;DHT22;16799;50.844;5.304;2023-05-02T04:34:16;11.70;99.90
29939;DHT22;16799;50.844;5.304;2023-05-02T04:36:44;11.80;99.90
29939;DHT22;16799;50.844;5.304;2023-05-02T04:39:10;11.80;99.90
29939;DHT22;16799;50.844;5.304;2023-05-02T04:41:36;11.90;99.90
29939;DHT22;16799;50.844;5.304;2023-05-02T04:44:01;11.70;99.90
29939;DHT22;16799;50.844;5.304;2023-05-02T04:46:28;11.80;99.90
29939;DHT22;16799;50.844;5.304;2023-05-02T04:48:55;11.90;99.90
29939;DHT22;16799;50.844;5.304;2023-05-02T04:51:20;12.00;99.90
29939;DHT22;16799;50.844;5.304;2023-05-02T04:53:46;12.10;99.90
29939;DHT22;16799;50.844;5.304;2023-05-02T04:56:12;12.00;99.90
29939;DHT22;16799;50.844;5.304;2023-05-02T04:58:37;12.10;99.90
29939;DHT22;16799;50.844;5.304;2023-05-02T05:01:03;12.10;99.90
29939;DHT22;16799;50.844;5.304;2023-05-02T05:03:29;12.10;99.90
29939;DHT22;16799;50.844;5.304;2023-05-02T05:05:55;12.30;99.90
29939;DHT22;16799;50.844;5.304;2023-05-02T05:08:20;12.40;99.90
29939;DHT22;16799;50.844;5.304;2023-05-02T05:10:46;12.40;99.90
29939;DHT22;16799;50.844;5.304;2023-05-02T05:13:12;12.50;99.90
29939;DHT22;16799;50.844;5.304;2023-05-02T05:15:38;12.50;99.90
29939;DHT22;16799;50.844;5.304;2023-05-02T05:18:04;12.60;99.90
29939;DHT22;16799;50.844;5.304;2023-05-02T05:20:31;12.70;99.90
29939;DHT22;16799;50.844;5.304;2023-05-02T05:22:58;12.70;99.90
29939;DHT22;16799;50.844;5.304;2023-05-02T05:25:27;12.60;99.90
29939;DHT22;16799;50.844;5.304;2023-05-02T05:27:53;12.60;99.90
29939;DHT22;16799;50.844;5.304;2023-05-02T05:30:20;12.60;99.90
29939;DHT22;16799;50.844;5.304;2023-05-02T05:32:46;12.70;99.90
29939;DHT22;16799;50.844;5.304;2023-05-02T05:35:12;12.70;99.90
29939;DHT22;16799;50.844;5.304;2023-05-02T05:37:38;12.60;99.90
29939;DHT22;16799;50.844;5.304;2023-05-02T05:40:07;12.60;99.90
29939;DHT22;16799;50.844;5.304;2023-05-02T05:42:33;12.30;99.90
29939;DHT22;16799;50.844;5.304;2023-05-02T05:44:59;12.10;99.90
29939;DHT22;16799;50.844;5.304;2023-05-02T05:47:25;11.90;99.90
29939;DHT22;16799;50.844;5.304;2023-05-02T05:49:54;11.90;99.90
29939;DHT22;16799;50.844;5.304;2023-05-02T05:52:20;12.30;99.90
29939;DHT22;16799;50.844;5.304;2023-05-02T05:54:46;12.20;99.90
29939;DHT22;16799;50.844;5.304;2023-05-02T05:57:11;12.00;99.90
29939;DHT22;16799;50.844;5.304;2023-05-02T05:59:37;11.90;99.90
29939;DHT22;16799;50.844;5.304;2023-05-02T06:02:03;11.90;99.90
29939;DHT22;16799;50.844;5.304;2023-05-02T06:04:29;11.90;99.90
29939;DHT22;16799;50.844;5.304;2023-05-02T06:06:54;12.10;99.90
29939;DHT22;16799;50.844;5.304;2023-05-02T06:09:20;12.30;99.90
29939;DHT22;16799;50.844;5.304;2023-05-02T06:11:46;12.30;99.90
29939;DHT22;16799;50.844;5.304;2023-05-02T06:14:12;12.20;99.90
29939;DHT22;16799;50.844;5.304;2023-05-02T06:16:37;12.00;99.90
29939;DHT22;16799;50.844;5.304;2023-05-02T06:19:03;12.00;99.90
29939;DHT22;16799;50.844;5.304;2023-05-02T06:21:29;12.10;99.90
29939;DHT22;16799;50.844;5.304;2023-05-02T06:23:55;12.30;99.90
29939;DHT22;16799;50.844;5.304;2023-05-02T06:26:21;12.40;99.90
29939;DHT22;16799;50.844;5.304;2023-05-02T06:28:47;12.70;99.90
29939;DHT22;16799;50.844;5.304;2023-05-02T06:31:12;12.80;99.90
29939;DHT22;16799;50.844;5.304;2023-05-02T06:33:38;12.90;99.90
29939;DHT22;16799;50.844;5.304;2023-05-02T06:36:04;13.00;99.90
29939;DHT22;16799;50.844;5.304;2023-05-02T06:38:29;13.10;99.90
29939;DHT22;16799;50.844;5.304;2023-05-02T06:40:55;13.10;99.90
29939;DHT22;16799;50.844;5.304;2023-05-02T06:43:21;13.20;99.90
29939;DHT22;16799;50.844;5.304;2023-05-02T06:45:46;13.30;99.90
29939;DHT22;16799;50.844;5.304;2023-05-02T06:48:12;13.30;99.90
29939;DHT22;16799;50.844;5.304;2023-05-02T06:50:38;13.50;99.90
29939;DHT22;16799;50.844;5.304;2023-05-02T06:53:03;13.50;99.90
29939;DHT22;16799;50.844;5.304;2023-05-02T06:55:30;13.70;99.90
29939;DHT22;16799;50.844;5.304;2023-05-02T06:57:56;13.60;99.90
29939;DHT22;16799;50.844;5.304;2023-05-02T07:00:21;13.60;99.90
29939;DHT22;16799;50.844;5.304;2023-05-02T07:02:48;13.50;99.90
29939;DHT22;16799;50.844;5.304;2023-05-02T07:05:15;13.60;99.90
29939;DHT22;16799;50.844;5.304;2023-05-02T07:07:41;13.50;99.90
29939;DHT22;16799;50.844;5.304;2023-05-02T07:10:07;13.40;99.90
29939;DHT22;16799;50.844;5.304;2023-05-02T07:12:33;13.20;99.90
29939;DHT22;16799;50.844;5.304;2023-05-02T07:14:59;13.30;99.90
29939;DHT22;16799;50.844;5.304;2023-05-02T07:17:24;13.30;99.90
29939;DHT22;16799;50.844;5.304;2023-05-02T07:19:51;13.50;99.90
29939;DHT22;16799;50.844;5.304;2023-05-02T07:22:17;13.90;99.90
29939;DHT22;16799;50.844;5.304;2023-05-02T07:24:43;14.10;99.90
29939;DHT22;16799;50.844;5.304;2023-05-02T07:27:09;14.30;99.90
29939;DHT22;16799;50.844;5.304;2023-05-02T07:29:35;13.90;99.90
29939;DHT22;16799;50.844;5.304;2023-05-02T07:32:01;14.10;99.90
29939;DHT22;16799;50.844;5.304;2023-05-02T07:34:27;14.30;99.90
29939;DHT22;16799;50.844;5.304;2023-05-02T07:36:53;14.50;99.90
29939;DHT22;16799;50.844;5.304;2023-05-02T07:39:18;14.60;99.90
29939;DHT22;16799;50.844;5.304;2023-05-02T07:41:44;14.70;99.90
29939;DHT22;16799;50.844;5.304;2023-05-02T07:44:10;14.50;99.90
29939;DHT22;16799;50.844;5.304;2023-05-02T07:46:36;14.70;99.90
29939;DHT22;16799;50.844;5.304;2023-05-02T07:49:02;14.70;99.90
29939;DHT22;16799;50.844;5.304;2023-05-02T07:51:28;14.80;99.90
29939;DHT22;16799;50.844;5.304;2023-05-02T07:53:53;14.80;99.90
29939;DHT22;16799;50.844;5.304;2023-05-02T07:56:23;14.10;99.90
29939;DHT22;16799;50.844;5.304;2023-05-02T07:58:49;14.60;99.90
29939;DHT22;16799;50.844;5.304;2023-05-02T08:01:16;15.00;99.90
29939;DHT22;16799;50.844;5.304;2023-05-02T08:03:42;15.00;98.30
29939;DHT22;16799;50.844;5.304;2023-05-02T08:06:08;14.80;99.80
29939;DHT22;16799;50.844;5.304;2023-05-02T08:08:34;15.10;97.80
29939;DHT22;16799;50.844;5.304;2023-05-02T08:11:00;15.30;98.50
29939;DHT22;16799;50.844;5.304;2023-05-02T08:13:26;15.60;99.90
29939;DHT22;16799;50.844;5.304;2023-05-02T08:15:53;16.00;97.80
29939;DHT22;16799;50.844;5.304;2023-05-02T08:18:26;15.70;97.80
29939;DHT22;16799;50.844;5.304;2023-05-02T08:20:54;15.70;98.70
29939;DHT22;16799;50.844;5.304;2023-05-02T08:23:20;16.20;96.00
29939;DHT22;16799;50.844;5.304;2023-05-02T08:25:45;16.50;95.20
29939;DHT22;16799;50.844;5.304;2023-05-02T08:28:11;16.90;95.10
29939;DHT22;16799;50.844;5.304;2023-05-02T08:30:37;16.70;94.90
29939;DHT22;16799;50.844;5.304;2023-05-02T08:33:03;15.70;94.90
29939;DHT22;16799;50.844;5.304;2023-05-02T08:35:28;15.00;99.60
29939;DHT22;16799;50.844;5.304;2023-05-02T08:37:55;15.20;99.90
29939;DHT22;16799;50.844;5.304;2023-05-02T08:40:21;15.50;99.00
29939;DHT22;16799;50.844;5.304;2023-05-02T08:42:47;15.30;96.20
29939;DHT22;16799;50.844;5.304;2023-05-02T08:45:14;14.80;99.70
29939;DHT22;16799;50.844;5.304;2023-05-02T08:47:41;15.00;99.90
29939;DHT22;16799;50.844;5.304;2023-05-02T08:50:08;15.40;96.70
29939;DHT22;16799;50.844;5.304;2023-05-02T08:52:35;15.60;99.30
29939;DHT22;16799;50.844;5.304;2023-05-02T08:55:02;16.10;96.20
29939;DHT22;16799;50.844;5.304;2023-05-02T08:57:28;16.70;95.00
29939;DHT22;16799;50.844;5.304;2023-05-02T08:59:55;17.10;93.80
29939;DHT22;16799;50.844;5.304;2023-05-02T09:05:05;17.30;93.00
29939;DHT22;16799;50.844;5.304;2023-05-02T09:07:46;18.00;89.40
29939;DHT22;16799;50.844;5.304;2023-05-02T09:10:13;18.50;92.10
29939;DHT22;16799;50.844;5.304;2023-05-02T09:12:39;18.50;89.60
29939;DHT22;16799;50.844;5.304;2023-05-02T09:15:15;18.80;90.30
29939;DHT22;16799;50.844;5.304;2023-05-02T09:17:45;19.50;88.70
29939;DHT22;16799;50.844;5.304;2023-05-02T09:20:13;17.40;82.50
29939;DHT22;16799;50.844;5.304;2023-05-02T09:22:47;16.70;87.50
29939;DHT22;16799;50.844;5.304;2023-05-02T09:25:15;16.40;91.00
29939;DHT22;16799;50.844;5.304;2023-05-02T09:27:52;17.10;91.20
29939;DHT22;16799;50.844;5.304;2023-05-02T09:30:20;17.00;91.00
29939;DHT22;16799;50.844;5.304;2023-05-02T09:32:47;17.10;92.60
29939;DHT22;16799;50.844;5.304;2023-05-02T09:35:15;17.30;88.90
29939;DHT22;16799;50.844;5.304;2023-05-02T09:37:52;16.90;87.10
29939;DHT22;16799;50.844;5.304;2023-05-02T09:40:18;17.30;90.90
29939;DHT22;16799;50.844;5.304;2023-05-02T09:42:45;17.90;88.50
29939;DHT22;16799;50.844;5.304;2023-05-02T09:45:24;18.20;83.80
29939;DHT22;16799;50.844;5.304;2023-05-02T09:47:51;18.00;83.30
29939;DHT22;16799;50.844;5.304;2023-05-02T09:50:36;18.00;85.00
29939;DHT22;16799;50.844;5.304;2023-05-02T09:53:06;18.20;82.90
29939;DHT22;16799;50.844;5.304;2023-05-02T09:55:33;18.60;88.00
29939;DHT22;16799;50.844;5.304;2023-05-02T09:57:59;19.10;85.50
29939;DHT22;16799;50.844;5.304;2023-05-02T10:00:58;19.70;84.70
29939;DHT22;16799;50.844;5.304;2023-05-02T10:03:25;19.70;77.60
29939;DHT22;16799;50.844;5.304;2023-05-02T10:05:52;19.10;79.20
29939;DHT22;16799;50.844;5.304;2023-05-02T10:08:20;19.20;77.60
29939;DHT22;16799;50.844;5.304;2023-05-02T10:10:57;19.30;77.40
29939;DHT22;16799;50.844;5.304;2023-05-02T10:13:25;19.80;82.50
29939;DHT22;16799;50.844;5.304;2023-05-02T10:16:01;20.20;75.70
29939;DHT22;16799;50.844;5.304;2023-05-02T10:18:40;20.50;78.10
29939;DHT22;16799;50.844;5.304;2023-05-02T10:21:11;20.90;75.30
29939;DHT22;16799;50.844;5.304;2023-05-02T10:23:41;21.10;73.40
29939;DHT22;16799;50.844;5.304;2023-05-02T10:26:11;21.30;75.30
29939;DHT22;16799;50.844;5.304;2023-05-02T10:28:39;21.40;71.50
29939;DHT22;16799;50.844;5.304;2023-05-02T10:31:06;21.00;71.30
29939;DHT22;16799;50.844;5.304;2023-05-02T10:33:34;20.30;70.10
29939;DHT22;16799;50.844;5.304;2023-05-02T10:36:01;19.20;74.00
29939;DHT22;16799;50.844;5.304;2023-05-02T10:38:28;20.40;75.20
29939;DHT22;16799;50.844;5.304;2023-05-02T10:40:58;21.80;72.20
29939;DHT22;16799;50.844;5.304;2023-05-02T10:43:27;22.60;70.10
29939;DHT22;16799;50.844;5.304;2023-05-02T10:45:53;22.30;64.40
29939;DHT22;16799;50.844;5.304;2023-05-02T10:48:21;22.30;63.60
29939;DHT22;16799;50.844;5.304;2023-05-02T10:50:48;23.00;69.70
29939;DHT22;16799;50.844;5.304;2023-05-02T10:53:33;24.10;63.30
29939;DHT22;16799;50.844;5.304;2023-05-02T10:56:18;23.80;61.10
29939;DHT22;16799;50.844;5.304;2023-05-02T10:58:51;23.10;57.70
29939;DHT22;16799;50.844;5.304;2023-05-02T11:06:19;23.80;59.80
29939;DHT22;16799;50.844;5.304;2023-05-02T11:08:45;24.70;55.60
29939;DHT22;16799;50.844;5.304;2023-05-02T11:11:42;25.90;57.30
29939;DHT22;16799;50.844;5.304;2023-05-02T11:24:45;28.00;50.70
29939;DHT22;16799;50.844;5.304;2023-05-02T11:30:01;25.40;47.90
29939;DHT22;16799;50.844;5.304;2023-05-02T11:35:22;21.40;58.60
29939;DHT22;16799;50.844;5.304;2023-05-02T11:38:02;21.70;56.50
29939;DHT22;16799;50.844;5.304;2023-05-02T11:40:29;21.10;57.30
29939;DHT22;16799;50.844;5.304;2023-05-02T11:42:56;20.20;58.50
29939;DHT22;16799;50.844;5.304;2023-05-02T11:45:35;18.60;59.40
29939;DHT22;16799;50.844;5.304;2023-05-02T11:48:06;18.60;64.00
29939;DHT22;16799;50.844;5.304;2023-05-02T11:50:33;19.20;62.60
29939;DHT22;16799;50.844;5.304;2023-05-02T11:52:59;20.10;62.80
29939;DHT22;16799;50.844;5.304;2023-05-02T11:55:25;20.80;60.20
29939;DHT22;16799;50.844;5.304;2023-05-02T11:57:51;20.80;63.10
29939;DHT22;16799;50.844;5.304;2023-05-02T12:00:17;21.00;62.40
29939;DHT22;16799;50.844;5.304;2023-05-02T12:02:46;21.10;62.10
29939;DHT22;16799;50.844;5.304;2023-05-02T12:05:14;21.20;59.60
29939;DHT22;16799;50.844;5.304;2023-05-02T12:07:40;21.90;58.20
29939;DHT22;16799;50.844;5.304;2023-05-02T12:10:07;23.60;55.80
29939;DHT22;16799;50.844;5.304;2023-05-02T12:12:34;24.90;52.40
29939;DHT22;16799;50.844;5.304;2023-05-02T12:15:04;24.00;50.60
29939;DHT22;16799;50.844;5.304;2023-05-02T12:17:30;21.70;53.00
29939;DHT22;16799;50.844;5.304;2023-05-02T12:19:57;20.80;56.10
29939;DHT22;16799;50.844;5.304;2023-05-02T12:22:24;22.40;58.90
29939;DHT22;16799;50.844;5.304;2023-05-02T12:24:50;24.10;56.10
29939;DHT22;16799;50.844;5.304;2023-05-02T12:27:18;24.60;49.60
29939;DHT22;16799;50.844;5.304;2023-05-02T12:29:46;24.80;50.40
29939;DHT22;16799;50.844;5.304;2023-05-02T12:32:12;25.00;54.60
29939;DHT22;16799;50.844;5.304;2023-05-02T12:34:39;24.50;51.70
29939;DHT22;16799;50.844;5.304;2023-05-02T12:37:06;23.80;56.90
29939;DHT22;16799;50.844;5.304;2023-05-02T12:39:42;23.20;54.60
29939;DHT22;16799;50.844;5.304;2023-05-02T12:42:11;23.10;54.70
29939;DHT22;16799;50.844;5.304;2023-05-02T12:44:45;24.20;53.10
29939;DHT22;16799;50.844;5.304;2023-05-02T12:47:13;26.10;52.10
29939;DHT22;16799;50.844;5.304;2023-05-02T12:49:51;28.00;50.50
29939;DHT22;16799;50.844;5.304;2023-05-02T12:52:44;29.30;47.10
29939;DHT22;16799;50.844;5.304;2023-05-02T12:55:17;28.50;45.50
29939;DHT22;16799;50.844;5.304;2023-05-02T12:57:43;28.60;42.10
29939;DHT22;16799;50.844;5.304;2023-05-02T13:00:09;28.00;49.10
29939;DHT22;16799;50.844;5.304;2023-05-02T13:02:35;29.20;44.70
29939;DHT22;16799;50.844;5.304;2023-05-02T13:05:00;30.30;43.90
29939;DHT22;16799;50.844;5.304;2023-05-02T13:07:26;29.80;41.80
29939;DHT22;16799;50.844;5.304;2023-05-02T13:09:52;27.40;40.70
29939;DHT22;16799;50.844;5.304;2023-05-02T13:12:17;26.60;45.20
29939;DHT22;16799;50.844;5.304;2023-05-02T13:14:43;28.00;44.40
29939;DHT22;16799;50.844;5.304;2023-05-02T13:17:09;29.30;45.20
29939;DHT22;16799;50.844;5.304;2023-05-02T13:19:35;29.40;43.50
29939;DHT22;16799;50.844;5.304;2023-05-02T13:22:00;29.30;42.40
29939;DHT22;16799;50.844;5.304;2023-05-02T13:24:26;28.80;42.50
29939;DHT22;16799;50.844;5.304;2023-05-02T13:26:52;27.70;39.80
29939;DHT22;16799;50.844;5.304;2023-05-02T13:29:18;26.40;41.70
29939;DHT22;16799;50.844;5.304;2023-05-02T13:31:43;27.40;42.70
29939;DHT22;16799;50.844;5.304;2023-05-02T13:34:09;26.90;44.40
29939;DHT22;16799;50.844;5.304;2023-05-02T13:36:34;28.10;43.10
29939;DHT22;16799;50.844;5.304;2023-05-02T13:39:05;29.30;41.60
29939;DHT22;16799;50.844;5.304;2023-05-02T13:41:30;30.00;41.60
29939;DHT22;16799;50.844;5.304;2023-05-02T13:43:56;29.60;38.20
29939;DHT22;16799;50.844;5.304;2023-05-02T13:46:21;28.90;39.00
29939;DHT22;16799;50.844;5.304;2023-05-02T13:48:47;29.30;35.70
29939;DHT22;16799;50.844;5.304;2023-05-02T13:51:13;29.40;38.50
29939;DHT22;16799;50.844;5.304;2023-05-02T13:53:38;30.60;38.60
29939;DHT22;16799;50.844;5.304;2023-05-02T13:56:04;31.70;36.00
29939;DHT22;16799;50.844;5.304;2023-05-02T13:58:30;31.20;34.50
29939;DHT22;16799;50.844;5.304;2023-05-02T14:00:56;29.70;34.60
29939;DHT22;16799;50.844;5.304;2023-05-02T14:03:22;27.20;37.20
29939;DHT22;16799;50.844;5.304;2023-05-02T14:05:47;27.50;38.70
29939;DHT22;16799;50.844;5.304;2023-05-02T14:08:13;29.00;40.60
29939;DHT22;16799;50.844;5.304;2023-05-02T14:10:43;30.70;37.10
29939;DHT22;16799;50.844;5.304;2023-05-02T14:13:08;31.10;34.30
29939;DHT22;16799;50.844;5.304;2023-05-02T14:15:34;32.30;34.40
29939;DHT22;16799;50.844;5.304;2023-05-02T14:17:59;33.30;36.50
29939;DHT22;16799;50.844;5.304;2023-05-02T14:20:25;32.70;31.90
29939;DHT22;16799;50.844;5.304;2023-05-02T14:22:51;27.80;34.20
29939;DHT22;16799;50.844;5.304;2023-05-02T14:25:16;28.30;37.60
29939;DHT22;16799;50.844;5.304;2023-05-02T14:27:45;29.80;34.70
29939;DHT22;16799;50.844;5.304;2023-05-02T14:30:10;31.20;34.60
29939;DHT22;16799;50.844;5.304;2023-05-02T14:32:36;32.80;32.80
29939;DHT22;16799;50.844;5.304;2023-05-02T14:35:02;32.40;31.10
29939;DHT22;16799;50.844;5.304;2023-05-02T14:37:28;32.50;34.60
29939;DHT22;16799;50.844;5.304;2023-05-02T14:39:54;32.70;32.80
29939;DHT22;16799;50.844;5.304;2023-05-02T14:42:24;32.60;33.00
29939;DHT22;16799;50.844;5.304;2023-05-02T14:44:50;33.20;33.80
29939;DHT22;16799;50.844;5.304;2023-05-02T14:47:16;33.70;31.80
29939;DHT22;16799;50.844;5.304;2023-05-02T14:49:41;34.10;32.40
29939;DHT22;16799;50.844;5.304;2023-05-02T14:52:07;34.70;28.70
29939;DHT22;16799;50.844;5.304;2023-05-02T14:54:33;34.90;29.70
29939;DHT22;16799;50.844;5.304;2023-05-02T14:56:59;35.40;30.20
29939;DHT22;16799;50.844;5.304;2023-05-02T14:59:29;35.70;30.60
29939;DHT22;16799;50.844;5.304;2023-05-02T15:01:55;33.90;28.60
29939;DHT22;16799;50.844;5.304;2023-05-02T15:04:21;29.80;29.60
29939;DHT22;16799;50.844;5.304;2023-05-02T15:06:47;25.90;31.70
29939;DHT22;16799;50.844;5.304;2023-05-02T15:09:13;25.40;36.90
29939;DHT22;16799;50.844;5.304;2023-05-02T15:11:40;26.60;36.00
29939;DHT22;16799;50.844;5.304;2023-05-02T15:14:06;28.70;36.30
29939;DHT22;16799;50.844;5.304;2023-05-02T15:16:32;30.50;34.50
29939;DHT22;16799;50.844;5.304;2023-05-02T15:18:57;29.50;31.40
29939;DHT22;16799;50.844;5.304;2023-05-02T15:21:23;27.90;32.80
29939;DHT22;16799;50.844;5.304;2023-05-02T15:23:49;28.60;36.80
29939;DHT22;16799;50.844;5.304;2023-05-02T15:26:15;30.00;34.00
29939;DHT22;16799;50.844;5.304;2023-05-02T15:28:40;31.60;32.40
29939;DHT22;16799;50.844;5.304;2023-05-02T15:31:06;32.40;31.50
29939;DHT22;16799;50.844;5.304;2023-05-02T15:33:32;30.80;31.00
29939;DHT22;16799;50.844;5.304;2023-05-02T15:35:58;26.30;32.60
29939;DHT22;16799;50.844;5.304;2023-05-02T15:38:23;25.90;36.80
29939;DHT22;16799;50.844;5.304;2023-05-02T15:40:56;26.00;37.20
29939;DHT22;16799;50.844;5.304;2023-05-02T15:43:22;26.70;36.30
29939;DHT22;16799;50.844;5.304;2023-05-02T15:45:53;27.70;35.30
29939;DHT22;16799;50.844;5.304;2023-05-02T15:48:19;28.70;35.50
29939;DHT22;16799;50.844;5.304;2023-05-02T15:50:46;29.60;33.90
29939;DHT22;16799;50.844;5.304;2023-05-02T15:53:13;30.80;32.90
29939;DHT22;16799;50.844;5.304;2023-05-02T15:55:39;32.10;32.30
29939;DHT22;16799;50.844;5.304;2023-05-02T15:58:05;32.70;32.90
29939;DHT22;16799;50.844;5.304;2023-05-02T16:00:31;33.20;30.60
29939;DHT22;16799;50.844;5.304;2023-05-02T16:02:57;33.90;30.40
29939;DHT22;16799;50.844;5.304;2023-05-02T16:05:22;31.40;30.80
29939;DHT22;16799;50.844;5.304;2023-05-02T16:07:48;31.90;31.50
29939;DHT22;16799;50.844;5.304;2023-05-02T16:10:13;32.40;32.60
29939;DHT22;16799;50.844;5.304;2023-05-02T16:12:39;32.30;29.70
29939;DHT22;16799;50.844;5.304;2023-05-02T16:15:05;31.30;29.90
29939;DHT22;16799;50.844;5.304;2023-05-02T16:17:32;31.70;31.80
29939;DHT22;16799;50.844;5.304;2023-05-02T16:19:58;31.80;31.80
29939;DHT22;16799;50.844;5.304;2023-05-02T16:22:24;32.50;30.80
29939;DHT22;16799;50.844;5.304;2023-05-02T16:24:55;32.90;31.10
29939;DHT22;16799;50.844;5.304;2023-05-02T16:27:21;32.80;30.00
29939;DHT22;16799;50.844;5.304;2023-05-02T16:29:48;32.70;31.10